sensor_id;sensor_type;location;lat;lon;timestamp;P1;durP1;ratioP1;P2;durP2;ratioP2
9080;SDS011;13509;50.760;6.080;2023-02-22T00:00:19;17.70;;;11.97;;
9080;SDS011;13509;50.760;6.080;2023-02-22T00:02:53;19.40;;;12.30;;
9080;SDS011;13509;50.760;6.080;2023-02-22T00:05:25;23.77;;;14.60;;
9080;SDS011;13509;50.760;6.080;2023-02-22T00:07:54;23.03;;;13.17;;
9080;SDS011;13509;50.760;6.080;2023-02-22T00:10:24;20.70;;;12.67;;
9080;SDS011;13509;50.760;6.080;2023-02-22T00:12:53;19.13;;;12.37;;
9080;SDS011;13509;50.760;6.080;2023-02-22T00:15:23;21.17;;;12.63;;
9080;SDS011;13509;50.760;6.080;2023-02-22T00:17:53;18.90;;;11.80;;
9080;SDS011;13509;50.760;6.080;2023-02-22T00:20:22;21.00;;;12.70;;
9080;SDS011;13509;50.760;6.080;2023-02-22T00:22:50;21.17;;;12.57;;
9080;SDS011;13509;50.760;6.080;2023-02-22T00:25:19;20.93;;;12.83;;
9080;SDS011;13509;50.760;6.080;2023-02-22T00:27:49;19.73;;;12.47;;
9080;SDS011;13509;50.760;6.080;2023-02-22T00:30:19;22.00;;;13.37;;
9080;SDS011;13509;50.760;6.080;2023-02-22T00:32:48;20.47;;;12.70;;
9080;SDS011;13509;50.760;6.080;2023-02-22T00:35:17;19.30;;;12.20;;
9080;SDS011;13509;50.760;6.080;2023-02-22T00:37:46;20.00;;;12.73;;
9080;SDS011;13509;50.760;6.080;2023-02-22T00:40:15;22.37;;;12.47;;
9080;SDS011;13509;50.760;6.080;2023-02-22T00:42:44;23.17;;;12.40;;
9080;SDS011;13509;50.760;6.080;2023-02-22T00:45:15;22.67;;;11.83;;
9080;SDS011;13509;50.760;6.080;2023-02-22T00:47:43;20.47;;;11.53;;
9080;SDS011;13509;50.760;6.080;2023-02-22T00:50:13;20.43;;;11.83;;
9080;SDS011;13509;50.760;6.080;2023-02-22T00:52:41;21.67;;;12.17;;
9080;SDS011;13509;50.760;6.080;2023-02-22T00:55:13;22.53;;;11.70;;
9080;SDS011;13509;50.760;6.080;2023-02-22T00:57:42;22.50;;;12.03;;
9080;SDS011;13509;50.760;6.080;2023-02-22T01:00:15;21.33;;;12.57;;
9080;SDS011;13509;50.760;6.080;2023-02-22T01:02:43;21.70;;;12.17;;
9080;SDS011;13509;50.760;6.080;2023-02-22T01:05:17;22.87;;;12.33;;
9080;SDS011;13509;50.760;6.080;2023-02-22T01:07:46;21.80;;;12.00;;
9080;SDS011;13509;50.760;6.080;2023-02-22T01:10:16;22.07;;;11.93;;
9080;SDS011;13509;50.760;6.080;2023-02-22T01:12:45;25.07;;;12.10;;
9080;SDS011;13509;50.760;6.080;2023-02-22T01:15:15;25.30;;;12.40;;
9080;SDS011;13509;50.760;6.080;2023-02-22T01:17:46;24.40;;;13.10;;
9080;SDS011;13509;50.760;6.080;2023-02-22T01:20:14;26.73;;;13.00;;
9080;SDS011;13509;50.760;6.080;2023-02-22T01:22:43;23.30;;;13.07;;
9080;SDS011;13509;50.760;6.080;2023-02-22T01:25:15;23.03;;;12.77;;
9080;SDS011;13509;50.760;6.080;2023-02-22T01:27:43;28.10;;;13.87;;
9080;SDS011;13509;50.760;6.080;2023-02-22T01:30:12;24.97;;;14.27;;
9080;SDS011;13509;50.760;6.080;2023-02-22T01:32:42;25.67;;;14.03;;
9080;SDS011;13509;50.760;6.080;2023-02-22T01:35:11;25.80;;;14.17;;
9080;SDS011;13509;50.760;6.080;2023-02-22T01:37:39;27.47;;;13.30;;
9080;SDS011;13509;50.760;6.080;2023-02-22T01:40:09;23.53;;;12.87;;
9080;SDS011;13509;50.760;6.080;2023-02-22T01:42:37;24.50;;;12.80;;
9080;SDS011;13509;50.760;6.080;2023-02-22T01:47:54;22.77;;;12.13;;
9080;SDS011;13509;50.760;6.080;2023-02-22T01:50:23;24.80;;;12.17;;
9080;SDS011;13509;50.760;6.080;2023-02-22T01:52:51;23.60;;;12.33;;
9080;SDS011;13509;50.760;6.080;2023-02-22T01:55:19;23.83;;;13.03;;
9080;SDS011;13509;50.760;6.080;2023-02-22T01:57:47;22.27;;;11.70;;
9080;SDS011;13509;50.760;6.080;2023-02-22T02:00:17;22.60;;;12.33;;
9080;SDS011;13509;50.760;6.080;2023-02-22T02:02:47;24.30;;;12.37;;
9080;SDS011;13509;50.760;6.080;2023-02-22T02:05:17;23.23;;;12.10;;
9080;SDS011;13509;50.760;6.080;2023-02-22T02:07:46;27.43;;;13.37;;
9080;SDS011;13509;50.760;6.080;2023-02-22T02:10:14;22.97;;;12.10;;
9080;SDS011;13509;50.760;6.080;2023-02-22T02:12:43;28.27;;;12.37;;
9080;SDS011;13509;50.760;6.080;2023-02-22T02:15:15;21.47;;;11.97;;
9080;SDS011;13509;50.760;6.080;2023-02-22T02:17:43;23.57;;;12.43;;
9080;SDS011;13509;50.760;6.080;2023-02-22T02:20:12;24.37;;;13.43;;
9080;SDS011;13509;50.760;6.080;2023-02-22T02:22:45;23.67;;;12.03;;
9080;SDS011;13509;50.760;6.080;2023-02-22T02:25:23;22.47;;;11.97;;
9080;SDS011;13509;50.760;6.080;2023-02-22T02:30:45;24.33;;;12.23;;
9080;SDS011;13509;50.760;6.080;2023-02-22T02:33:17;20.37;;;11.03;;
9080;SDS011;13509;50.760;6.080;2023-02-22T02:35:48;24.23;;;12.20;;
9080;SDS011;13509;50.760;6.080;2023-02-22T02:38:20;21.10;;;11.60;;
9080;SDS011;13509;50.760;6.080;2023-02-22T02:40:51;21.43;;;12.80;;
9080;SDS011;13509;50.760;6.080;2023-02-22T02:43:23;23.20;;;11.83;;
9080;SDS011;13509;50.760;6.080;2023-02-22T02:45:53;23.23;;;11.33;;
9080;SDS011;13509;50.760;6.080;2023-02-22T02:48:24;24.30;;;12.67;;
9080;SDS011;13509;50.760;6.080;2023-02-22T02:50:54;26.53;;;13.67;;
9080;SDS011;13509;50.760;6.080;2023-02-22T02:53:24;25.30;;;13.00;;
9080;SDS011;13509;50.760;6.080;2023-02-22T02:55:52;23.90;;;12.70;;
9080;SDS011;13509;50.760;6.080;2023-02-22T02:58:21;25.70;;;13.27;;
9080;SDS011;13509;50.760;6.080;2023-02-22T03:00:50;25.97;;;13.70;;
9080;SDS011;13509;50.760;6.080;2023-02-22T03:06:11;24.57;;;12.90;;
9080;SDS011;13509;50.760;6.080;2023-02-22T03:08:46;27.13;;;13.20;;
9080;SDS011;13509;50.760;6.080;2023-02-22T03:11:16;25.70;;;13.37;;
9080;SDS011;13509;50.760;6.080;2023-02-22T03:13:49;24.57;;;13.30;;
9080;SDS011;13509;50.760;6.080;2023-02-22T03:16:20;24.80;;;13.27;;
9080;SDS011;13509;50.760;6.080;2023-02-22T03:18:49;24.00;;;13.10;;
9080;SDS011;13509;50.760;6.080;2023-02-22T03:21:23;23.93;;;13.13;;
9080;SDS011;13509;50.760;6.080;2023-02-22T03:23:55;25.83;;;12.70;;
9080;SDS011;13509;50.760;6.080;2023-02-22T03:26:28;21.93;;;12.40;;
9080;SDS011;13509;50.760;6.080;2023-02-22T03:28:56;23.50;;;12.30;;
9080;SDS011;13509;50.760;6.080;2023-02-22T03:31:26;22.20;;;11.93;;
9080;SDS011;13509;50.760;6.080;2023-02-22T03:33:57;19.63;;;12.13;;
9080;SDS011;13509;50.760;6.080;2023-02-22T03:36:28;21.67;;;12.33;;
9080;SDS011;13509;50.760;6.080;2023-02-22T03:38:58;21.90;;;11.47;;
9080;SDS011;13509;50.760;6.080;2023-02-22T03:41:29;24.47;;;12.23;;
9080;SDS011;13509;50.760;6.080;2023-02-22T03:43:58;24.23;;;12.40;;
9080;SDS011;13509;50.760;6.080;2023-02-22T03:46:28;20.70;;;11.90;;
9080;SDS011;13509;50.760;6.080;2023-02-22T03:48:57;17.40;;;10.87;;
9080;SDS011;13509;50.760;6.080;2023-02-22T03:51:28;18.83;;;11.10;;
9080;SDS011;13509;50.760;6.080;2023-02-22T03:53:56;19.67;;;11.37;;
9080;SDS011;13509;50.760;6.080;2023-02-22T03:56:25;23.20;;;12.07;;
9080;SDS011;13509;50.760;6.080;2023-02-22T03:59:01;21.73;;;11.20;;
9080;SDS011;13509;50.760;6.080;2023-02-22T04:01:29;20.87;;;10.67;;
9080;SDS011;13509;50.760;6.080;2023-02-22T04:03:57;21.33;;;11.23;;
9080;SDS011;13509;50.760;6.080;2023-02-22T04:06:28;23.53;;;11.87;;
9080;SDS011;13509;50.760;6.080;2023-02-22T04:08:56;21.47;;;11.30;;
9080;SDS011;13509;50.760;6.080;2023-02-22T04:11:24;21.87;;;11.57;;
9080;SDS011;13509;50.760;6.080;2023-02-22T04:13:52;21.40;;;11.70;;
9080;SDS011;13509;50.760;6.080;2023-02-22T04:16:20;23.10;;;12.10;;
9080;SDS011;13509;50.760;6.080;2023-02-22T04:18:49;19.37;;;10.87;;
9080;SDS011;13509;50.760;6.080;2023-02-22T04:21:17;19.63;;;10.67;;
9080;SDS011;13509;50.760;6.080;2023-02-22T04:23:46;21.80;;;11.30;;
9080;SDS011;13509;50.760;6.080;2023-02-22T04:26:15;21.13;;;10.87;;
9080;SDS011;13509;50.760;6.080;2023-02-22T04:28:43;22.30;;;11.80;;
9080;SDS011;13509;50.760;6.080;2023-02-22T04:31:11;20.10;;;11.57;;
9080;SDS011;13509;50.760;6.080;2023-02-22T04:33:39;21.23;;;11.40;;
9080;SDS011;13509;50.760;6.080;2023-02-22T04:36:08;20.03;;;11.07;;
9080;SDS011;13509;50.760;6.080;2023-02-22T04:38:38;19.07;;;11.10;;
9080;SDS011;13509;50.760;6.080;2023-02-22T04:41:08;19.37;;;11.07;;
9080;SDS011;13509;50.760;6.080;2023-02-22T04:43:36;20.13;;;10.80;;
9080;SDS011;13509;50.760;6.080;2023-02-22T04:46:04;20.37;;;10.87;;
9080;SDS011;13509;50.760;6.080;2023-02-22T04:48:33;23.47;;;11.30;;
9080;SDS011;13509;50.760;6.080;2023-02-22T04:51:02;21.00;;;11.70;;
9080;SDS011;13509;50.760;6.080;2023-02-22T04:53:30;20.77;;;11.20;;
9080;SDS011;13509;50.760;6.080;2023-02-22T04:55:58;19.17;;;9.90;;
9080;SDS011;13509;50.760;6.080;2023-02-22T04:58:28;21.83;;;10.77;;
9080;SDS011;13509;50.760;6.080;2023-02-22T05:00:56;19.43;;;10.07;;
9080;SDS011;13509;50.760;6.080;2023-02-22T05:03:25;18.33;;;10.83;;
9080;SDS011;13509;50.760;6.080;2023-02-22T05:05:53;19.43;;;10.60;;
9080;SDS011;13509;50.760;6.080;2023-02-22T05:08:21;17.73;;;10.03;;
9080;SDS011;13509;50.760;6.080;2023-02-22T05:10:49;19.97;;;10.10;;
9080;SDS011;13509;50.760;6.080;2023-02-22T05:13:17;18.37;;;10.77;;
9080;SDS011;13509;50.760;6.080;2023-02-22T05:15:47;21.50;;;11.20;;
9080;SDS011;13509;50.760;6.080;2023-02-22T05:18:15;17.33;;;9.93;;
9080;SDS011;13509;50.760;6.080;2023-02-22T05:20:43;22.63;;;10.80;;
9080;SDS011;13509;50.760;6.080;2023-02-22T05:23:11;16.40;;;9.60;;
9080;SDS011;13509;50.760;6.080;2023-02-22T05:25:40;19.27;;;9.13;;
9080;SDS011;13509;50.760;6.080;2023-02-22T05:28:10;15.43;;;8.93;;
9080;SDS011;13509;50.760;6.080;2023-02-22T05:30:38;17.90;;;9.40;;
9080;SDS011;13509;50.760;6.080;2023-02-22T05:33:08;17.00;;;8.50;;
9080;SDS011;13509;50.760;6.080;2023-02-22T05:35:38;15.93;;;8.90;;
9080;SDS011;13509;50.760;6.080;2023-02-22T05:38:06;15.17;;;8.90;;
9080;SDS011;13509;50.760;6.080;2023-02-22T05:40:34;16.63;;;8.80;;
9080;SDS011;13509;50.760;6.080;2023-02-22T05:43:02;14.97;;;8.63;;
9080;SDS011;13509;50.760;6.080;2023-02-22T05:45:30;17.90;;;8.40;;
9080;SDS011;13509;50.760;6.080;2023-02-22T05:47:59;15.83;;;8.20;;
9080;SDS011;13509;50.760;6.080;2023-02-22T05:50:28;13.80;;;7.73;;
9080;SDS011;13509;50.760;6.080;2023-02-22T05:52:58;15.27;;;7.63;;
9080;SDS011;13509;50.760;6.080;2023-02-22T05:55:26;14.90;;;8.20;;
9080;SDS011;13509;50.760;6.080;2023-02-22T05:57:54;13.80;;;8.20;;
9080;SDS011;13509;50.760;6.080;2023-02-22T06:00:23;13.73;;;7.77;;
9080;SDS011;13509;50.760;6.080;2023-02-22T06:02:52;11.70;;;7.23;;
9080;SDS011;13509;50.760;6.080;2023-02-22T06:05:20;12.60;;;7.43;;
9080;SDS011;13509;50.760;6.080;2023-02-22T06:07:50;14.83;;;7.73;;
9080;SDS011;13509;50.760;6.080;2023-02-22T06:10:18;14.70;;;6.60;;
9080;SDS011;13509;50.760;6.080;2023-02-22T06:12:47;17.10;;;8.17;;
9080;SDS011;13509;50.760;6.080;2023-02-22T06:15:16;14.73;;;7.33;;
9080;SDS011;13509;50.760;6.080;2023-02-22T06:17:44;14.63;;;7.17;;
9080;SDS011;13509;50.760;6.080;2023-02-22T06:20:15;14.33;;;7.13;;
9080;SDS011;13509;50.760;6.080;2023-02-22T06:22:45;16.53;;;7.83;;
9080;SDS011;13509;50.760;6.080;2023-02-22T06:25:15;12.93;;;6.97;;
9080;SDS011;13509;50.760;6.080;2023-02-22T06:27:44;12.23;;;6.87;;
9080;SDS011;13509;50.760;6.080;2023-02-22T06:30:13;14.87;;;7.97;;
9080;SDS011;13509;50.760;6.080;2023-02-22T06:32:41;12.60;;;6.80;;
9080;SDS011;13509;50.760;6.080;2023-02-22T06:35:09;13.13;;;7.10;;
9080;SDS011;13509;50.760;6.080;2023-02-22T06:37:38;12.90;;;7.33;;
9080;SDS011;13509;50.760;6.080;2023-02-22T06:40:07;12.40;;;6.70;;
9080;SDS011;13509;50.760;6.080;2023-02-22T06:42:37;11.70;;;5.97;;
9080;SDS011;13509;50.760;6.080;2023-02-22T06:45:06;11.83;;;6.60;;
9080;SDS011;13509;50.760;6.080;2023-02-22T06:47:36;14.63;;;6.40;;
9080;SDS011;13509;50.760;6.080;2023-02-22T06:50:05;15.33;;;7.23;;
9080;SDS011;13509;50.760;6.080;2023-02-22T06:52:33;10.97;;;6.23;;
9080;SDS011;13509;50.760;6.080;2023-02-22T06:55:01;13.33;;;6.77;;
9080;SDS011;13509;50.760;6.080;2023-02-22T06:57:30;10.73;;;6.47;;
9080;SDS011;13509;50.760;6.080;2023-02-22T06:59:59;13.53;;;7.17;;
9080;SDS011;13509;50.760;6.080;2023-02-22T07:02:28;11.80;;;6.27;;
9080;SDS011;13509;50.760;6.080;2023-02-22T07:04:56;12.03;;;6.77;;
9080;SDS011;13509;50.760;6.080;2023-02-22T07:07:24;12.60;;;6.73;;
9080;SDS011;13509;50.760;6.080;2023-02-22T07:09:52;10.80;;;5.83;;
9080;SDS011;13509;50.760;6.080;2023-02-22T07:12:21;11.63;;;6.00;;
9080;SDS011;13509;50.760;6.080;2023-02-22T07:14:49;11.17;;;6.50;;
9080;SDS011;13509;50.760;6.080;2023-02-22T07:17:18;11.00;;;6.00;;
9080;SDS011;13509;50.760;6.080;2023-02-22T07:19:46;12.50;;;6.17;;
9080;SDS011;13509;50.760;6.080;2023-02-22T07:22:15;12.17;;;6.43;;
9080;SDS011;13509;50.760;6.080;2023-02-22T07:24:43;11.00;;;6.97;;
9080;SDS011;13509;50.760;6.080;2023-02-22T07:27:12;11.57;;;6.40;;
9080;SDS011;13509;50.760;6.080;2023-02-22T07:29:41;9.43;;;5.40;;
9080;SDS011;13509;50.760;6.080;2023-02-22T07:32:09;9.90;;;6.63;;
9080;SDS011;13509;50.760;6.080;2023-02-22T07:34:39;9.67;;;6.17;;
9080;SDS011;13509;50.760;6.080;2023-02-22T07:37:08;10.73;;;5.40;;
9080;SDS011;13509;50.760;6.080;2023-02-22T07:39:36;8.53;;;5.30;;
9080;SDS011;13509;50.760;6.080;2023-02-22T07:42:07;11.13;;;6.10;;
9080;SDS011;13509;50.760;6.080;2023-02-22T07:44:35;10.23;;;6.27;;
9080;SDS011;13509;50.760;6.080;2023-02-22T07:47:03;11.93;;;5.83;;
9080;SDS011;13509;50.760;6.080;2023-02-22T07:49:31;11.27;;;6.17;;
9080;SDS011;13509;50.760;6.080;2023-02-22T07:52:01;9.90;;;5.67;;
9080;SDS011;13509;50.760;6.080;2023-02-22T07:54:29;8.50;;;5.23;;
9080;SDS011;13509;50.760;6.080;2023-02-22T07:56:57;8.87;;;5.23;;
9080;SDS011;13509;50.760;6.080;2023-02-22T07:59:25;9.87;;;5.60;;
9080;SDS011;13509;50.760;6.080;2023-02-22T08:01:53;8.03;;;4.93;;
9080;SDS011;13509;50.760;6.080;2023-02-22T08:04:22;7.43;;;4.93;;
9080;SDS011;13509;50.760;6.080;2023-02-22T08:06:50;7.20;;;5.03;;
9080;SDS011;13509;50.760;6.080;2023-02-22T08:09:19;12.60;;;5.10;;
9080;SDS011;13509;50.760;6.080;2023-02-22T08:11:48;12.67;;;5.77;;
9080;SDS011;13509;50.760;6.080;2023-02-22T08:14:16;7.90;;;5.50;;
9080;SDS011;13509;50.760;6.080;2023-02-22T08:16:45;6.33;;;4.97;;
9080;SDS011;13509;50.760;6.080;2023-02-22T08:19:13;9.87;;;5.40;;
9080;SDS011;13509;50.760;6.080;2023-02-22T08:21:41;9.57;;;5.63;;
9080;SDS011;13509;50.760;6.080;2023-02-22T08:24:10;13.97;;;6.17;;
9080;SDS011;13509;50.760;6.080;2023-02-22T08:26:44;10.13;;;6.97;;
9080;SDS011;13509;50.760;6.080;2023-02-22T08:29:12;10.30;;;5.73;;
9080;SDS011;13509;50.760;6.080;2023-02-22T08:31:40;13.47;;;6.13;;
9080;SDS011;13509;50.760;6.080;2023-02-22T08:34:08;13.30;;;6.30;;
9080;SDS011;13509;50.760;6.080;2023-02-22T08:36:40;8.33;;;5.63;;
9080;SDS011;13509;50.760;6.080;2023-02-22T08:39:08;10.73;;;4.90;;
9080;SDS011;13509;50.760;6.080;2023-02-22T08:41:36;6.90;;;4.80;;
9080;SDS011;13509;50.760;6.080;2023-02-22T08:44:06;9.03;;;4.87;;
9080;SDS011;13509;50.760;6.080;2023-02-22T08:46:34;7.37;;;4.53;;
9080;SDS011;13509;50.760;6.080;2023-02-22T08:49:02;8.93;;;4.77;;
9080;SDS011;13509;50.760;6.080;2023-02-22T08:51:33;7.53;;;4.10;;
9080;SDS011;13509;50.760;6.080;2023-02-22T08:54:01;6.70;;;3.80;;
9080;SDS011;13509;50.760;6.080;2023-02-22T08:56:31;7.07;;;4.50;;
9080;SDS011;13509;50.760;6.080;2023-02-22T08:59:00;6.90;;;3.83;;
9080;SDS011;13509;50.760;6.080;2023-02-22T09:01:29;8.10;;;4.17;;
9080;SDS011;13509;50.760;6.080;2023-02-22T09:03:59;10.47;;;4.30;;
9080;SDS011;13509;50.760;6.080;2023-02-22T09:06:28;8.67;;;4.43;;
9080;SDS011;13509;50.760;6.080;2023-02-22T09:08:56;8.07;;;4.93;;
9080;SDS011;13509;50.760;6.080;2023-02-22T09:11:24;7.10;;;4.63;;
9080;SDS011;13509;50.760;6.080;2023-02-22T09:13:52;6.80;;;4.77;;
9080;SDS011;13509;50.760;6.080;2023-02-22T09:16:21;8.47;;;4.87;;
9080;SDS011;13509;50.760;6.080;2023-02-22T09:18:50;8.20;;;5.33;;
9080;SDS011;13509;50.760;6.080;2023-02-22T09:21:18;8.33;;;5.60;;
9080;SDS011;13509;50.760;6.080;2023-02-22T09:23:46;7.03;;;5.27;;
9080;SDS011;13509;50.760;6.080;2023-02-22T09:26:15;8.50;;;5.07;;
9080;SDS011;13509;50.760;6.080;2023-02-22T09:28:43;8.57;;;4.80;;
9080;SDS011;13509;50.760;6.080;2023-02-22T09:31:11;7.80;;;5.27;;
9080;SDS011;13509;50.760;6.080;2023-02-22T09:33:39;6.77;;;4.70;;
9080;SDS011;13509;50.760;6.080;2023-02-22T09:36:09;7.53;;;4.43;;
9080;SDS011;13509;50.760;6.080;2023-02-22T09:38:37;7.57;;;4.40;;
9080;SDS011;13509;50.760;6.080;2023-02-22T09:41:07;6.27;;;4.50;;
9080;SDS011;13509;50.760;6.080;2023-02-22T09:43:37;7.33;;;4.07;;
9080;SDS011;13509;50.760;6.080;2023-02-22T09:46:12;7.00;;;3.60;;
9080;SDS011;13509;50.760;6.080;2023-02-22T09:48:50;5.90;;;3.67;;
9080;SDS011;13509;50.760;6.080;2023-02-22T09:51:24;5.70;;;3.63;;
9080;SDS011;13509;50.760;6.080;2023-02-22T09:53:54;5.80;;;3.67;;
9080;SDS011;13509;50.760;6.080;2023-02-22T09:56:25;6.57;;;4.10;;
9080;SDS011;13509;50.760;6.080;2023-02-22T09:58:54;6.30;;;4.00;;
9080;SDS011;13509;50.760;6.080;2023-02-22T10:01:24;8.27;;;4.17;;
9080;SDS011;13509;50.760;6.080;2023-02-22T10:03:55;8.30;;;4.27;;
9080;SDS011;13509;50.760;6.080;2023-02-22T10:06:27;6.93;;;3.90;;
9080;SDS011;13509;50.760;6.080;2023-02-22T10:08:56;6.87;;;4.20;;
9080;SDS011;13509;50.760;6.080;2023-02-22T10:11:33;6.77;;;3.97;;
9080;SDS011;13509;50.760;6.080;2023-02-22T10:14:08;6.90;;;4.30;;
9080;SDS011;13509;50.760;6.080;2023-02-22T10:16:45;5.87;;;4.47;;
9080;SDS011;13509;50.760;6.080;2023-02-22T10:19:19;6.77;;;4.23;;
9080;SDS011;13509;50.760;6.080;2023-02-22T10:21:54;6.93;;;4.93;;
9080;SDS011;13509;50.760;6.080;2023-02-22T10:24:28;5.97;;;4.43;;
9080;SDS011;13509;50.760;6.080;2023-02-22T10:27:03;8.80;;;4.83;;
9080;SDS011;13509;50.760;6.080;2023-02-22T10:29:35;8.13;;;4.87;;
9080;SDS011;13509;50.760;6.080;2023-02-22T10:32:07;6.70;;;4.53;;
9080;SDS011;13509;50.760;6.080;2023-02-22T10:34:38;9.83;;;5.27;;
9080;SDS011;13509;50.760;6.080;2023-02-22T10:37:13;8.30;;;4.93;;
9080;SDS011;13509;50.760;6.080;2023-02-22T10:39:43;8.33;;;5.00;;
9080;SDS011;13509;50.760;6.080;2023-02-22T10:42:12;9.40;;;5.03;;
9080;SDS011;13509;50.760;6.080;2023-02-22T10:44:41;6.33;;;4.60;;
9080;SDS011;13509;50.760;6.080;2023-02-22T10:47:09;10.97;;;5.27;;
9080;SDS011;13509;50.760;6.080;2023-02-22T10:49:43;6.87;;;5.23;;
9080;SDS011;13509;50.760;6.080;2023-02-22T10:52:16;8.97;;;5.37;;
9080;SDS011;13509;50.760;6.080;2023-02-22T10:54:47;8.80;;;5.30;;
9080;SDS011;13509;50.760;6.080;2023-02-22T10:57:18;8.90;;;5.10;;
9080;SDS011;13509;50.760;6.080;2023-02-22T10:59:47;8.83;;;5.23;;
9080;SDS011;13509;50.760;6.080;2023-02-22T11:02:18;7.40;;;5.00;;
9080;SDS011;13509;50.760;6.080;2023-02-22T11:04:47;10.17;;;5.73;;
9080;SDS011;13509;50.760;6.080;2023-02-22T11:07:21;8.73;;;5.90;;
9080;SDS011;13509;50.760;6.080;2023-02-22T11:09:51;7.90;;;5.80;;
9080;SDS011;13509;50.760;6.080;2023-02-22T11:12:21;9.53;;;5.90;;
9080;SDS011;13509;50.760;6.080;2023-02-22T11:14:53;9.60;;;5.93;;
9080;SDS011;13509;50.760;6.080;2023-02-22T11:17:29;10.90;;;6.20;;
9080;SDS011;13509;50.760;6.080;2023-02-22T11:19:58;8.53;;;5.73;;
9080;SDS011;13509;50.760;6.080;2023-02-22T11:22:29;6.83;;;4.97;;
9080;SDS011;13509;50.760;6.080;2023-02-22T11:24:59;8.43;;;5.60;;
9080;SDS011;13509;50.760;6.080;2023-02-22T11:27:32;9.57;;;6.17;;
9080;SDS011;13509;50.760;6.080;2023-02-22T11:30:13;7.73;;;5.63;;
9080;SDS011;13509;50.760;6.080;2023-02-22T11:32:47;8.03;;;5.67;;
9080;SDS011;13509;50.760;6.080;2023-02-22T11:35:29;6.87;;;5.40;;
9080;SDS011;13509;50.760;6.080;2023-02-22T11:38:14;7.23;;;5.33;;
9080;SDS011;13509;50.760;6.080;2023-02-22T11:40:43;6.80;;;5.47;;
9080;SDS011;13509;50.760;6.080;2023-02-22T11:43:14;7.67;;;5.40;;
9080;SDS011;13509;50.760;6.080;2023-02-22T11:48:29;6.93;;;5.33;;
9080;SDS011;13509;50.760;6.080;2023-02-22T11:51:03;7.83;;;5.80;;
9080;SDS011;13509;50.760;6.080;2023-02-22T11:53:39;7.33;;;5.50;;
9080;SDS011;13509;50.760;6.080;2023-02-22T11:56:12;9.33;;;5.40;;
9080;SDS011;13509;50.760;6.080;2023-02-22T11:58:49;8.93;;;5.73;;
9080;SDS011;13509;50.760;6.080;2023-02-22T12:01:22;7.33;;;5.20;;
9080;SDS011;13509;50.760;6.080;2023-02-22T12:06:44;8.20;;;5.60;;
9080;SDS011;13509;50.760;6.080;2023-02-22T12:09:16;7.97;;;5.60;;
9080;SDS011;13509;50.760;6.080;2023-02-22T12:11:51;7.43;;;5.57;;
9080;SDS011;13509;50.760;6.080;2023-02-22T12:14:23;8.30;;;5.80;;
9080;SDS011;13509;50.760;6.080;2023-02-22T12:17:01;10.20;;;5.20;;
9080;SDS011;13509;50.760;6.080;2023-02-22T12:19:32;9.93;;;5.87;;
9080;SDS011;13509;50.760;6.080;2023-02-22T12:22:04;7.63;;;6.23;;
9080;SDS011;13509;50.760;6.080;2023-02-22T12:24:37;8.20;;;6.33;;
9080;SDS011;13509;50.760;6.080;2023-02-22T12:27:08;10.33;;;6.23;;
9080;SDS011;13509;50.760;6.080;2023-02-22T12:29:38;7.33;;;5.40;;
9080;SDS011;13509;50.760;6.080;2023-02-22T12:32:10;9.10;;;6.33;;
9080;SDS011;13509;50.760;6.080;2023-02-22T12:34:39;8.80;;;6.50;;
9080;SDS011;13509;50.760;6.080;2023-02-22T12:37:11;8.37;;;6.07;;
9080;SDS011;13509;50.760;6.080;2023-02-22T12:39:43;8.50;;;6.13;;
9080;SDS011;13509;50.760;6.080;2023-02-22T12:42:21;9.13;;;6.93;;
9080;SDS011;13509;50.760;6.080;2023-02-22T12:44:52;10.17;;;6.50;;
9080;SDS011;13509;50.760;6.080;2023-02-22T12:47:23;10.23;;;6.53;;
9080;SDS011;13509;50.760;6.080;2023-02-22T12:49:54;8.87;;;6.33;;
9080;SDS011;13509;50.760;6.080;2023-02-22T12:52:26;12.27;;;6.70;;
9080;SDS011;13509;50.760;6.080;2023-02-22T12:55:00;9.83;;;6.10;;
9080;SDS011;13509;50.760;6.080;2023-02-22T12:57:35;11.67;;;6.87;;
9080;SDS011;13509;50.760;6.080;2023-02-22T13:00:07;9.60;;;6.13;;
9080;SDS011;13509;50.760;6.080;2023-02-22T13:02:41;12.03;;;6.80;;
9080;SDS011;13509;50.760;6.080;2023-02-22T13:05:12;11.20;;;6.50;;
9080;SDS011;13509;50.760;6.080;2023-02-22T13:07:42;8.77;;;6.60;;
9080;SDS011;13509;50.760;6.080;2023-02-22T13:10:22;8.80;;;6.73;;
9080;SDS011;13509;50.760;6.080;2023-02-22T13:12:58;9.53;;;6.30;;
9080;SDS011;13509;50.760;6.080;2023-02-22T13:15:31;9.87;;;6.67;;
9080;SDS011;13509;50.760;6.080;2023-02-22T13:18:05;8.73;;;6.63;;
9080;SDS011;13509;50.760;6.080;2023-02-22T13:20:36;10.03;;;6.87;;
9080;SDS011;13509;50.760;6.080;2023-02-22T13:23:07;8.93;;;6.43;;
9080;SDS011;13509;50.760;6.080;2023-02-22T13:25:40;11.00;;;6.63;;
9080;SDS011;13509;50.760;6.080;2023-02-22T13:28:18;9.63;;;6.70;;
9080;SDS011;13509;50.760;6.080;2023-02-22T13:30:50;10.33;;;6.60;;
9080;SDS011;13509;50.760;6.080;2023-02-22T13:33:30;10.00;;;6.80;;
9080;SDS011;13509;50.760;6.080;2023-02-22T13:36:09;10.53;;;7.20;;
9080;SDS011;13509;50.760;6.080;2023-02-22T13:50:20;9.80;;;6.50;;
9080;SDS011;13509;50.760;6.080;2023-02-22T13:52:50;13.27;;;7.10;;
9080;SDS011;13509;50.760;6.080;2023-02-22T13:55:21;10.27;;;7.30;;
9080;SDS011;13509;50.760;6.080;2023-02-22T13:57:58;9.60;;;7.57;;
9080;SDS011;13509;50.760;6.080;2023-02-22T14:00:45;13.37;;;7.53;;
9080;SDS011;13509;50.760;6.080;2023-02-22T14:03:27;10.77;;;7.27;;
9080;SDS011;13509;50.760;6.080;2023-02-22T14:06:00;13.40;;;7.37;;
9080;SDS011;13509;50.760;6.080;2023-02-22T14:08:38;12.30;;;7.53;;
9080;SDS011;13509;50.760;6.080;2023-02-22T14:16:43;11.77;;;7.23;;
9080;SDS011;13509;50.760;6.080;2023-02-22T14:19:15;10.07;;;6.97;;
9080;SDS011;13509;50.760;6.080;2023-02-22T14:21:57;12.43;;;7.50;;
9080;SDS011;13509;50.760;6.080;2023-02-22T14:24:27;11.20;;;8.33;;
9080;SDS011;13509;50.760;6.080;2023-02-22T14:26:57;16.37;;;9.10;;
9080;SDS011;13509;50.760;6.080;2023-02-22T14:29:26;10.20;;;7.67;;
9080;SDS011;13509;50.760;6.080;2023-02-22T14:34:44;8.83;;;6.97;;
9080;SDS011;13509;50.760;6.080;2023-02-22T14:37:16;11.03;;;7.37;;
9080;SDS011;13509;50.760;6.080;2023-02-22T14:39:45;13.47;;;7.13;;
9080;SDS011;13509;50.760;6.080;2023-02-22T14:42:17;12.33;;;7.27;;
9080;SDS011;13509;50.760;6.080;2023-02-22T14:44:49;10.53;;;7.10;;
9080;SDS011;13509;50.760;6.080;2023-02-22T14:47:20;9.67;;;7.33;;
9080;SDS011;13509;50.760;6.080;2023-02-22T14:49:54;9.63;;;7.10;;
9080;SDS011;13509;50.760;6.080;2023-02-22T14:52:25;10.37;;;7.47;;
9080;SDS011;13509;50.760;6.080;2023-02-22T14:54:57;15.37;;;7.63;;
9080;SDS011;13509;50.760;6.080;2023-02-22T14:57:31;10.03;;;7.17;;
9080;SDS011;13509;50.760;6.080;2023-02-22T15:00:05;10.83;;;7.80;;
9080;SDS011;13509;50.760;6.080;2023-02-22T15:02:45;11.17;;;7.60;;
9080;SDS011;13509;50.760;6.080;2023-02-22T15:05:14;10.17;;;8.07;;
9080;SDS011;13509;50.760;6.080;2023-02-22T15:07:52;12.13;;;8.77;;
9080;SDS011;13509;50.760;6.080;2023-02-22T15:10:23;13.83;;;7.90;;
9080;SDS011;13509;50.760;6.080;2023-02-22T15:12:52;11.67;;;7.13;;
9080;SDS011;13509;50.760;6.080;2023-02-22T15:15:34;11.63;;;7.40;;
9080;SDS011;13509;50.760;6.080;2023-02-22T15:18:02;13.07;;;8.27;;
9080;SDS011;13509;50.760;6.080;2023-02-22T15:20:33;11.77;;;8.43;;
9080;SDS011;13509;50.760;6.080;2023-02-22T15:23:04;12.87;;;9.13;;
9080;SDS011;13509;50.760;6.080;2023-02-22T15:25:32;11.40;;;8.23;;
9080;SDS011;13509;50.760;6.080;2023-02-22T15:28:03;11.37;;;8.27;;
9080;SDS011;13509;50.760;6.080;2023-02-22T15:30:34;12.10;;;8.03;;
9080;SDS011;13509;50.760;6.080;2023-02-22T15:33:08;12.70;;;7.83;;
9080;SDS011;13509;50.760;6.080;2023-02-22T15:35:37;13.13;;;7.90;;
9080;SDS011;13509;50.760;6.080;2023-02-22T15:38:17;11.07;;;8.80;;
9080;SDS011;13509;50.760;6.080;2023-02-22T15:40:47;13.83;;;8.60;;